createdAt,value
2024-02-13T00:01:22.473Z,5.49
2024-02-13T00:03:53.277Z,5.40
2024-02-13T00:06:23.159Z,5.45
2024-02-13T00:08:53.017Z,5.34
2024-02-13T00:11:22.908Z,5.32
2024-02-13T00:13:53.065Z,5.39
2024-02-13T00:16:25.480Z,5.28
2024-02-13T00:18:55.401Z,5.25
2024-02-13T00:21:25.314Z,5.23
2024-02-13T00:23:55.263Z,5.19
2024-02-13T00:26:25.262Z,5.16
2024-02-13T00:28:55.249Z,5.14
2024-02-13T00:31:29.827Z,5.22
2024-02-13T00:34:23.379Z,5.20
2024-02-13T00:36:53.920Z,5.21
2024-02-13T00:39:23.732Z,5.13
2024-02-13T00:41:56.397Z,5.23
2024-02-13T00:44:26.838Z,5.41
2024-02-13T00:46:59.238Z,5.23
2024-02-13T00:49:29.847Z,5.40
2024-02-13T00:51:59.669Z,5.55
2024-02-13T00:54:30.893Z,5.64
2024-02-13T00:57:00.879Z,5.37
2024-02-13T00:59:32.231Z,5.40
2024-02-13T01:02:04.904Z,5.41
2024-02-13T01:04:34.866Z,5.11
2024-02-13T01:07:05.507Z,5.29
2024-02-13T01:09:35.789Z,5.17
2024-02-13T01:12:05.893Z,5.12
2024-02-13T01:14:35.862Z,5.02
2024-02-13T01:17:08.480Z,4.95
2024-02-13T01:19:38.554Z,4.95
2024-02-13T01:22:08.536Z,4.99
2024-02-13T01:24:38.535Z,4.97
2024-02-13T01:27:08.417Z,4.96
2024-02-13T01:29:38.624Z,4.92
2024-02-13T01:32:11.155Z,5.03
2024-02-13T01:34:41.221Z,4.86
2024-02-13T01:37:11.146Z,4.86
2024-02-13T01:39:41.036Z,4.71
2024-02-13T01:42:11.138Z,4.80
2024-02-13T01:44:41.550Z,4.65
2024-02-13T01:47:14.368Z,4.73
2024-02-13T01:49:45.338Z,4.68
2024-02-13T01:52:15.775Z,4.67
2024-02-13T01:54:48.745Z,4.75
2024-02-13T01:57:18.544Z,4.72
2024-02-13T01:59:49.939Z,4.81
2024-02-13T02:02:22.650Z,4.76
2024-02-13T02:04:54.375Z,5.00
2024-02-13T02:07:24.817Z,5.10
2024-02-13T02:09:55.934Z,5.04
2024-02-13T02:12:25.931Z,4.95
2024-02-13T02:14:55.874Z,5.25
2024-02-13T02:17:28.342Z,5.12
2024-02-13T02:19:58.259Z,5.35
2024-02-13T02:22:28.282Z,5.15
2024-02-13T02:24:58.565Z,4.99
2024-02-13T02:27:31.504Z,5.07
2024-02-13T02:30:02.832Z,5.07
2024-02-13T02:32:35.158Z,5.00
2024-02-13T02:35:05.045Z,4.75
2024-02-13T02:37:36.512Z,4.99
2024-02-13T02:40:07.763Z,4.76
2024-02-13T02:42:40.243Z,4.86
2024-02-13T02:45:10.733Z,5.03
2024-02-13T02:47:41.219Z,5.00
2024-02-13T02:50:11.813Z,5.09
2024-02-13T02:52:42.061Z,5.17
2024-02-13T02:55:12.251Z,5.15
2024-02-13T02:57:44.617Z,5.50
2024-02-13T03:00:17.047Z,5.38
2024-02-13T03:02:57.699Z,5.55
2024-02-13T03:05:28.493Z,5.57
2024-02-13T03:07:58.595Z,5.32
2024-02-13T03:10:29.427Z,5.40
2024-02-13T03:13:01.888Z,5.47
2024-02-13T03:15:31.755Z,5.44
2024-02-13T03:18:01.850Z,5.30
2024-02-13T03:20:31.805Z,5.09
2024-02-13T03:23:02.701Z,5.14
2024-02-13T03:25:32.550Z,5.11
2024-02-13T03:28:17.837Z,5.11
2024-02-13T03:30:47.725Z,5.18
2024-02-13T03:33:17.663Z,5.23
2024-02-13T03:35:47.676Z,5.28
2024-02-13T03:38:17.567Z,5.32
2024-02-13T03:40:47.382Z,5.34
2024-02-13T03:43:19.742Z,5.42
2024-02-13T03:45:49.557Z,5.53
2024-02-13T03:48:20.734Z,5.64
2024-02-13T03:50:50.728Z,5.65
2024-02-13T03:53:20.660Z,5.61
2024-02-13T03:55:50.525Z,5.18
2024-02-13T03:58:23.167Z,5.19
2024-02-13T04:00:52.994Z,5.26
2024-02-13T04:03:23.009Z,5.11
2024-02-13T04:05:53.149Z,5.18
2024-02-13T04:08:23.360Z,5.12
2024-02-13T04:10:53.267Z,4.96
2024-02-13T04:13:25.740Z,4.78
2024-02-13T04:15:57.199Z,4.79
2024-02-13T04:18:27.305Z,4.82
2024-02-13T04:20:57.323Z,4.81
2024-02-13T04:23:28.697Z,4.78
2024-02-13T04:25:58.542Z,4.69
2024-02-13T04:28:30.927Z,4.79
2024-02-13T04:31:00.933Z,4.80
2024-02-13T04:33:30.953Z,4.69
2024-02-13T04:36:01.342Z,4.70
2024-02-13T04:38:31.209Z,4.72
2024-02-13T04:41:13.409Z,4.64
2024-02-13T04:43:55.859Z,4.59
2024-02-13T04:46:27.099Z,4.56
2024-02-13T04:48:57.857Z,4.47
2024-02-13T04:51:27.770Z,4.52
2024-02-13T04:53:58.347Z,4.57
2024-02-13T04:56:28.252Z,4.54
2024-02-13T04:59:00.676Z,4.66
2024-02-13T05:01:31.329Z,4.63
2024-02-13T05:04:13.729Z,4.38
2024-02-13T05:06:56.084Z,4.33
2024-02-13T05:09:25.968Z,4.41
2024-02-13T05:11:56.158Z,4.39
2024-02-13T05:14:29.155Z,4.28
2024-02-13T05:17:02.839Z,4.31
2024-02-13T05:19:32.745Z,4.38
2024-02-13T05:22:02.581Z,4.39
2024-02-13T05:24:32.726Z,4.65
2024-02-13T05:27:02.571Z,4.73
2024-02-13T05:29:35.046Z,4.59
2024-02-13T05:32:05.126Z,4.43
2024-02-13T05:34:35.064Z,4.41
2024-02-13T05:37:06.483Z,4.26
2024-02-13T05:39:37.457Z,4.34
2024-02-13T05:42:08.032Z,4.16
2024-02-13T05:44:41.306Z,4.24
2024-02-13T05:47:11.199Z,4.04
2024-02-13T05:49:41.395Z,4.05
2024-02-13T05:52:11.262Z,4.13
2024-02-13T05:54:43.814Z,3.99
2024-02-13T05:57:13.955Z,4.00
2024-02-13T05:59:46.397Z,3.93
2024-02-13T06:02:16.239Z,3.89
2024-02-13T06:04:46.071Z,4.10
2024-02-13T06:07:16.045Z,4.15
2024-02-13T06:09:45.885Z,3.94
2024-02-13T06:12:16.062Z,3.89
2024-02-13T06:14:48.906Z,4.01
2024-02-13T06:17:19.537Z,3.87
2024-02-13T06:19:49.435Z,3.85
2024-02-13T06:22:19.334Z,3.64
2024-02-13T06:24:49.672Z,4.02
2024-02-13T06:27:19.513Z,3.96
2024-02-13T06:29:51.981Z,4.16
2024-02-13T06:32:21.869Z,4.29
2024-02-13T06:34:54.070Z,4.38
2024-02-13T06:37:24.511Z,4.54
2024-02-13T06:39:54.534Z,4.70
2024-02-13T06:42:24.364Z,4.90
2024-02-13T06:44:56.846Z,4.37
2024-02-13T06:47:27.741Z,4.33
2024-02-13T06:49:58.215Z,4.06
2024-02-13T06:52:28.027Z,4.20
2024-02-13T06:54:57.875Z,4.36
2024-02-13T06:57:27.762Z,4.27
2024-02-13T07:00:04.173Z,4.59
2024-02-13T07:02:36.510Z,4.23
2024-02-13T07:05:06.780Z,4.43
2024-02-13T07:07:46.561Z,4.86
2024-02-13T07:10:18.652Z,5.39
2024-02-13T07:13:00.115Z,4.60
2024-02-13T07:15:33.697Z,4.94
2024-02-13T07:18:04.974Z,5.66
2024-02-13T07:20:32.465Z,5.27
2024-02-13T07:23:03.043Z,6.03
2024-02-13T07:25:32.952Z,6.25
2024-02-13T07:28:02.751Z,6.11
2024-02-13T07:30:35.217Z,6.01
2024-02-13T07:33:05.564Z,6.06
2024-02-13T07:35:35.450Z,5.09
2024-02-13T07:38:07.403Z,5.84
2024-02-13T07:40:37.259Z,6.30
2024-02-13T07:43:07.583Z,5.75
2024-02-13T07:45:40.924Z,5.53
2024-02-13T07:48:19.581Z,5.82
2024-02-13T07:50:49.937Z,5.81
2024-02-13T07:53:19.835Z,5.62
2024-02-13T07:55:49.858Z,5.68
2024-02-13T07:58:19.657Z,5.90
2024-02-13T08:00:52.935Z,5.80
2024-02-13T08:03:22.822Z,5.93
2024-02-13T08:05:52.716Z,6.11
2024-02-13T08:08:22.754Z,6.16
2024-02-13T08:10:52.908Z,5.90
2024-02-13T08:13:22.778Z,6.04
2024-02-13T08:15:55.178Z,6.15
2024-02-13T08:18:26.236Z,6.47
2024-02-13T08:20:56.364Z,6.33
2024-02-13T08:23:26.260Z,6.60
2024-02-13T08:25:56.164Z,6.13
2024-02-13T08:28:26.125Z,6.63
2024-02-13T08:30:58.661Z,6.07
2024-02-13T08:33:28.671Z,6.27
2024-02-13T08:35:58.706Z,6.16
2024-02-13T08:38:28.824Z,6.27
2024-02-13T08:40:58.675Z,6.11
2024-02-13T08:43:28.821Z,6.28
2024-02-13T08:46:01.634Z,6.31
2024-02-13T08:48:31.533Z,6.26
2024-02-13T08:51:02.403Z,6.55
2024-02-13T08:53:33.281Z,6.78
2024-02-13T08:56:03.105Z,6.57
2024-02-13T08:58:32.890Z,6.63
2024-02-13T09:01:06.330Z,6.92
2024-02-13T09:03:36.445Z,6.98
2024-02-13T09:06:25.037Z,6.94
2024-02-13T09:09:14.220Z,6.95
2024-02-13T09:11:45.414Z,6.90
2024-02-13T09:14:15.330Z,6.88
2024-02-13T09:16:48.275Z,6.93
2024-02-13T09:19:18.201Z,6.98
2024-02-13T09:21:48.125Z,6.86
2024-02-13T09:24:18.373Z,6.99
2024-02-13T09:26:48.234Z,7.03
2024-02-13T09:29:18.080Z,7.23
2024-02-13T09:31:50.480Z,7.49
2024-02-13T09:34:20.477Z,7.65
2024-02-13T09:36:50.332Z,7.53
2024-02-13T09:39:20.181Z,7.86
2024-02-13T09:41:52.269Z,8.02
2024-02-13T09:44:22.424Z,8.04
2024-02-13T09:46:55.784Z,7.88
2024-02-13T09:49:26.257Z,7.83
2024-02-13T09:51:58.616Z,7.70
2024-02-13T09:54:29.263Z,7.77
2024-02-13T09:57:01.461Z,7.96
2024-02-13T09:59:31.861Z,7.82
2024-02-13T10:02:06.770Z,7.73
2024-02-13T10:04:36.669Z,7.81
2024-02-13T10:07:08.141Z,7.94
2024-02-13T10:09:38.055Z,7.92
2024-02-13T10:12:14.911Z,7.84
2024-02-13T10:14:45.117Z,8.10
2024-02-13T10:17:18.592Z,7.95
2024-02-13T10:19:48.433Z,8.12
2024-02-13T10:22:18.389Z,8.08
2024-02-13T10:24:49.741Z,8.04
2024-02-13T10:27:20.190Z,8.45
2024-02-13T10:29:50.121Z,8.27
2024-02-13T10:32:22.866Z,8.04
2024-02-13T10:34:53.258Z,7.87
2024-02-13T10:37:24.435Z,8.09
2024-02-13T10:40:00.208Z,8.08
2024-02-13T10:42:38.602Z,8.23
2024-02-13T10:45:12.063Z,8.04
2024-02-13T10:48:03.726Z,7.97
2024-02-13T10:50:34.861Z,8.27
2024-02-13T10:53:05.673Z,8.03
2024-02-13T10:55:39.169Z,7.87
2024-02-13T10:58:20.850Z,7.80
2024-02-13T11:00:56.135Z,8.19
2024-02-13T11:03:29.823Z,8.16
2024-02-13T11:06:00.038Z,8.12
2024-02-13T11:08:30.189Z,8.17
2024-02-13T11:11:00.051Z,8.34
2024-02-13T11:13:30.345Z,8.21
2024-02-13T11:16:00.836Z,8.35
2024-02-13T11:18:56.917Z,8.34
2024-02-13T11:21:29.499Z,8.28
2024-02-13T11:24:24.069Z,8.17
2024-02-13T11:26:53.963Z,8.03
2024-02-13T11:29:24.747Z,8.13
2024-02-13T11:32:00.004Z,8.21
2024-02-13T11:34:45.859Z,8.10
2024-02-13T11:37:28.473Z,8.42
2024-02-13T11:40:00.875Z,8.49
2024-02-13T11:42:36.135Z,8.26
2024-02-13T11:45:07.499Z,8.24
2024-02-13T11:47:47.757Z,8.33
2024-02-13T11:50:21.203Z,8.42
2024-02-13T11:52:53.074Z,8.30
2024-02-13T11:55:23.578Z,8.67
2024-02-13T11:57:53.383Z,8.43
2024-02-13T12:00:24.163Z,8.35
2024-02-13T12:03:07.056Z,8.41
2024-02-13T12:05:39.495Z,8.63
2024-02-13T12:08:11.312Z,8.31
2024-02-13T12:10:41.355Z,8.41
2024-02-13T12:13:13.007Z,8.47
2024-02-13T12:15:44.709Z,8.66
2024-02-13T12:18:15.151Z,8.34
2024-02-13T12:20:52.572Z,8.40
2024-02-13T12:23:22.801Z,8.42
2024-02-13T12:26:02.244Z,8.38
2024-02-13T12:28:33.797Z,8.46
2024-02-13T12:31:06.772Z,8.59
2024-02-13T12:33:38.098Z,8.39
2024-02-13T12:36:20.571Z,8.26
2024-02-13T12:38:51.911Z,8.56
2024-02-13T12:41:21.983Z,8.56
2024-02-13T12:43:52.154Z,8.81
2024-02-13T12:46:22.715Z,8.90
2024-02-13T12:48:54.398Z,8.97
2024-02-13T12:51:29.263Z,8.88
2024-02-13T12:53:59.175Z,8.80
2024-02-13T12:56:29.813Z,8.96
2024-02-13T12:58:59.698Z,8.98
2024-02-13T13:01:29.555Z,8.83
2024-02-13T13:04:00.020Z,8.68
2024-02-13T13:06:34.818Z,8.59
2024-02-13T13:09:16.153Z,8.72
2024-02-13T13:11:50.672Z,8.48
2024-02-13T13:14:22.062Z,8.51
2024-02-13T13:16:53.350Z,8.66
2024-02-13T13:19:24.998Z,8.88
2024-02-13T13:21:57.751Z,8.70
2024-02-13T13:24:28.861Z,8.78
2024-02-13T13:26:58.943Z,8.72
2024-02-13T13:29:31.311Z,8.77
2024-02-13T13:32:02.921Z,8.88
2024-02-13T13:34:34.425Z,8.65
2024-02-13T13:37:08.470Z,8.89
2024-02-13T13:39:38.516Z,8.97
2024-02-13T13:42:11.888Z,8.87
2024-02-13T13:44:42.005Z,8.72
2024-02-13T13:47:12.092Z,8.59
2024-02-13T13:49:43.166Z,8.68
2024-02-13T13:52:15.674Z,8.78
2024-02-13T13:54:45.518Z,8.69
2024-02-13T13:57:15.330Z,8.59
2024-02-13T13:59:45.197Z,8.73
2024-02-13T14:02:15.110Z,8.56
2024-02-13T14:04:46.122Z,8.63
2024-02-13T14:07:20.719Z,8.65
2024-02-13T14:09:50.899Z,8.65
2024-02-13T14:12:20.750Z,9.15
2024-02-13T14:14:53.150Z,9.13
2024-02-13T14:17:24.926Z,8.96
2024-02-13T14:19:55.088Z,9.44
2024-02-13T14:22:28.171Z,9.46
2024-02-13T14:24:57.933Z,9.34
2024-02-13T14:27:29.569Z,9.32
2024-02-13T14:30:00.552Z,8.73
2024-02-13T14:32:30.813Z,9.10
2024-02-13T14:35:01.776Z,8.92
2024-02-13T14:37:35.103Z,8.84
2024-02-13T14:40:05.457Z,8.62
2024-02-13T14:42:35.655Z,8.53
2024-02-13T14:45:06.890Z,8.29
2024-02-13T14:47:39.067Z,8.27
2024-02-13T14:50:12.060Z,8.29
2024-02-13T14:52:45.869Z,8.30
2024-02-13T14:55:16.040Z,8.28
2024-02-13T14:58:00.191Z,8.31
2024-02-13T15:00:38.013Z,8.26
2024-02-13T15:03:13.614Z,8.07
2024-02-13T15:05:44.513Z,8.15
2024-02-13T15:08:18.842Z,8.02
2024-02-13T15:10:49.606Z,7.68
2024-02-13T15:13:20.485Z,7.60
2024-02-13T15:15:52.758Z,7.45
2024-02-13T15:18:43.646Z,7.68
2024-02-13T15:21:13.997Z,7.48
2024-02-13T15:23:47.366Z,7.37
2024-02-13T15:26:17.775Z,7.50
2024-02-13T15:28:49.966Z,7.60
2024-02-13T15:31:19.858Z,7.42
2024-02-13T15:33:55.459Z,7.64
2024-02-13T15:36:38.777Z,7.88
2024-02-13T15:39:24.009Z,7.66
2024-02-13T15:42:07.246Z,7.50
2024-02-13T15:44:49.894Z,7.73
2024-02-13T15:47:19.794Z,7.35
2024-02-13T15:49:51.393Z,7.64
2024-02-13T15:52:22.862Z,7.69
2024-02-13T15:54:56.217Z,7.55
2024-02-13T15:57:26.381Z,7.60
2024-02-13T15:59:57.490Z,7.29
2024-02-13T16:02:27.399Z,7.45
2024-02-13T16:04:57.232Z,7.62
2024-02-13T16:07:28.383Z,7.35
2024-02-13T16:10:00.966Z,7.41
2024-02-13T16:12:30.942Z,7.98
2024-02-13T16:15:01.076Z,7.70
2024-02-13T16:17:31.198Z,7.02
2024-02-13T16:20:01.082Z,6.89
2024-02-13T16:22:33.489Z,7.15
2024-02-13T16:25:07.274Z,6.44
2024-02-13T16:27:37.787Z,6.49
2024-02-13T16:30:09.464Z,6.42
2024-02-13T16:32:41.454Z,6.36
2024-02-13T16:35:12.469Z,6.14
2024-02-13T16:37:44.437Z,6.43
2024-02-13T16:40:19.182Z,6.73
2024-02-13T16:42:56.250Z,6.55
2024-02-13T16:45:30.081Z,6.99
2024-02-13T16:48:00.215Z,6.70
2024-02-13T16:50:30.187Z,6.90
2024-02-13T16:53:00.000Z,7.21
2024-02-13T16:55:32.369Z,7.12
2024-02-13T16:58:04.539Z,6.68
2024-02-13T17:00:34.378Z,6.83
2024-02-13T17:03:04.808Z,6.77
2024-02-13T17:05:37.727Z,6.96
2024-02-13T17:08:10.941Z,6.52
2024-02-13T17:10:43.548Z,6.03
2024-02-13T17:13:14.789Z,5.78
2024-02-13T17:15:46.669Z,5.77
2024-02-13T17:18:16.766Z,5.62
2024-02-13T17:20:46.634Z,5.67
2024-02-13T17:23:16.486Z,6.21
2024-02-13T17:25:51.130Z,5.99
2024-02-13T17:28:21.448Z,6.50
2024-02-13T17:30:52.260Z,5.88
2024-02-13T17:33:22.389Z,6.11
2024-02-13T17:35:52.532Z,6.59
2024-02-13T17:38:24.632Z,6.41
2024-02-13T17:40:58.069Z,6.15
2024-02-13T17:43:28.721Z,6.17
2024-02-13T17:45:58.595Z,5.76
2024-02-13T17:48:28.768Z,5.62
2024-02-13T17:50:59.353Z,5.68
2024-02-13T17:53:29.313Z,5.44
2024-02-13T17:56:01.680Z,5.85
2024-02-13T17:58:32.939Z,5.84
2024-02-13T18:01:03.081Z,5.98
2024-02-13T18:03:33.027Z,6.62
2024-02-13T18:06:03.954Z,6.42
2024-02-13T18:08:36.948Z,6.86
2024-02-13T18:11:09.421Z,6.71
2024-02-13T18:13:40.744Z,5.75
2024-02-13T18:16:11.887Z,5.63
2024-02-13T18:18:41.873Z,5.95
2024-02-13T18:21:12.094Z,6.40
2024-02-13T18:23:42.054Z,7.15
2024-02-13T18:26:15.742Z,6.34
2024-02-13T18:28:45.776Z,6.25
2024-02-13T18:31:15.961Z,6.19
2024-02-13T18:33:45.940Z,6.22
2024-02-13T18:36:16.002Z,6.03
2024-02-13T18:38:45.894Z,6.01
2024-02-13T18:41:18.314Z,5.96
2024-02-13T18:43:48.224Z,6.51
2024-02-13T18:46:18.185Z,6.69
2024-02-13T18:48:48.287Z,6.39
2024-02-13T18:51:20.589Z,6.26
2024-02-13T18:53:52.857Z,5.64
2024-02-13T18:56:28.460Z,5.17
2024-02-13T18:58:58.301Z,5.61
2024-02-13T19:01:29.641Z,5.53
2024-02-13T19:03:59.439Z,6.27
2024-02-13T19:06:29.823Z,5.32
2024-02-13T19:09:06.123Z,5.55
2024-02-13T19:11:39.574Z,5.75
2024-02-13T19:14:09.709Z,6.02
2024-02-13T19:16:45.041Z,6.31
2024-02-13T19:19:15.798Z,5.45
2024-02-13T19:21:47.512Z,5.32
2024-02-13T19:24:17.772Z,5.31
2024-02-13T19:26:51.403Z,5.17
2024-02-13T19:29:22.343Z,5.20
2024-02-13T19:31:52.654Z,5.36
2024-02-13T19:34:24.808Z,5.41
2024-02-13T19:36:57.823Z,5.61
2024-02-13T19:39:27.960Z,5.36
2024-02-13T19:42:00.337Z,5.42
2024-02-13T19:44:30.278Z,5.56
2024-02-13T19:47:00.163Z,5.49
2024-02-13T19:49:52.607Z,5.52
2024-02-13T19:52:42.395Z,5.55
2024-02-13T19:55:32.088Z,5.62
2024-02-13T19:58:24.619Z,5.66
2024-02-13T20:01:16.850Z,5.52
2024-02-13T20:04:06.757Z,5.50
2024-02-13T20:06:57.356Z,5.65
2024-02-13T20:09:27.901Z,5.73
2024-02-13T20:11:57.726Z,5.63
2024-02-13T20:14:30.861Z,5.46
2024-02-13T20:17:01.596Z,5.57
2024-02-13T20:19:33.074Z,5.68
2024-02-13T20:22:03.282Z,5.48
2024-02-13T20:24:34.081Z,5.61
2024-02-13T20:27:04.192Z,5.53
2024-02-13T20:29:36.876Z,5.55
2024-02-13T20:32:07.586Z,5.37
2024-02-13T20:34:38.690Z,5.53
2024-02-13T20:37:08.946Z,5.57
2024-02-13T20:39:38.881Z,5.43
2024-02-13T20:42:08.984Z,5.45
2024-02-13T20:44:41.936Z,5.52
2024-02-13T20:47:11.952Z,5.45
2024-02-13T20:49:43.001Z,5.44
2024-02-13T20:52:15.550Z,5.49
2024-02-13T20:54:45.522Z,5.43
2024-02-13T20:57:15.397Z,5.34
2024-02-13T20:59:48.105Z,5.19
2024-02-13T21:02:17.934Z,5.28
2024-02-13T21:04:48.821Z,5.44
2024-02-13T21:07:20.974Z,5.19
2024-02-13T21:09:50.867Z,5.43
2024-02-13T21:12:21.138Z,5.86
2024-02-13T21:14:53.565Z,6.11
2024-02-13T21:17:23.848Z,6.37
2024-02-13T21:19:57.619Z,6.47
2024-02-13T21:22:40.549Z,6.72
2024-02-13T21:25:11.549Z,6.79
2024-02-13T21:27:41.478Z,6.21
2024-02-13T21:30:15.932Z,5.87
2024-02-13T21:32:46.335Z,5.78
2024-02-13T21:35:16.991Z,6.08
2024-02-13T21:37:47.778Z,6.10
2024-02-13T21:40:17.889Z,5.98
2024-02-13T21:42:48.009Z,5.82
2024-02-13T21:45:21.217Z,5.91
2024-02-13T21:47:51.085Z,6.08
2024-02-13T21:50:21.073Z,6.18
2024-02-13T21:52:50.953Z,6.38
2024-02-13T21:55:20.785Z,6.56
2024-02-13T21:57:50.731Z,6.79
2024-02-13T22:00:23.821Z,6.38
2024-02-13T22:02:53.911Z,6.42
2024-02-13T22:05:23.799Z,6.29
2024-02-13T22:07:57.081Z,6.46
2024-02-13T22:10:26.846Z,6.40
2024-02-13T22:12:57.061Z,6.69
2024-02-13T22:15:30.734Z,6.70
2024-02-13T22:18:01.206Z,7.03
2024-02-13T22:20:35.259Z,7.29
2024-02-13T22:23:05.186Z,7.23
2024-02-13T22:25:34.998Z,7.50
2024-02-13T22:28:06.487Z,6.99
2024-02-13T22:30:40.185Z,6.81
2024-02-13T22:33:26.026Z,5.88
2024-02-13T22:35:56.469Z,6.29
2024-02-13T22:38:26.511Z,6.45
2024-02-13T22:40:56.331Z,6.96
2024-02-13T22:43:26.449Z,6.88
2024-02-13T22:45:58.864Z,6.42
2024-02-13T22:48:28.725Z,6.48
2024-02-13T22:50:58.599Z,6.71
2024-02-13T22:53:28.519Z,6.87
2024-02-13T22:55:58.343Z,6.50
2024-02-13T22:58:28.194Z,6.50
2024-02-13T23:01:02.039Z,6.89
2024-02-13T23:03:33.287Z,7.13
2024-02-13T23:06:04.076Z,6.83
2024-02-13T23:08:36.378Z,6.48
2024-02-13T23:11:08.400Z,6.01
2024-02-13T23:13:42.886Z,6.40
2024-02-13T23:16:18.600Z,6.29
2024-02-13T23:18:49.553Z,5.92
2024-02-13T23:21:19.836Z,6.18
2024-02-13T23:23:50.226Z,6.46
2024-02-13T23:26:20.170Z,6.48
2024-02-13T23:28:56.496Z,6.64
2024-02-13T23:31:30.090Z,7.38
2024-02-13T23:34:00.332Z,7.42
2024-02-13T23:36:30.764Z,7.35
2024-02-13T23:39:00.643Z,6.11
2024-02-13T23:41:30.774Z,6.34
2024-02-13T23:44:01.332Z,6.99
2024-02-13T23:46:33.756Z,7.21
2024-02-13T23:49:03.738Z,6.95
2024-02-13T23:51:34.081Z,6.44
2024-02-13T23:54:04.037Z,6.88
2024-02-13T23:56:33.938Z,6.75
2024-02-13T23:59:04.320Z,6.82
